createdAt,value
2023-04-15T00:07:40.522Z,98465.34
2023-04-15T00:17:43.103Z,98466.78
2023-04-15T00:27:45.629Z,98465.78
2023-04-15T00:37:51.554Z,98475.44
2023-04-15T00:47:54.384Z,98472.75
2023-04-15T00:57:57.769Z,98477.88
2023-04-15T01:08:00.597Z,98463.16
2023-04-15T01:18:03.425Z,98473.59
2023-04-15T01:28:06.082Z,98477.03
2023-04-15T01:38:09.898Z,98481.47
2023-04-15T01:48:13.577Z,98485.69
2023-04-15T01:58:16.503Z,98487.47
2023-04-15T02:08:19.550Z,98495.28
2023-04-15T02:18:22.190Z,98489.09
2023-04-15T02:28:24.683Z,98493.34
2023-04-15T02:38:29.167Z,98489.88
2023-04-15T02:48:31.868Z,98493.09
2023-04-15T02:58:36.029Z,98489.69
2023-04-15T03:08:38.595Z,98501.56
2023-04-15T03:18:41.333Z,98490.53
2023-04-15T03:28:44.161Z,98494.00
2023-04-15T03:38:50.296Z,98486.13
2023-04-15T03:48:52.817Z,98492.38
2023-04-15T03:58:55.282Z,98501.63
2023-04-15T04:08:57.669Z,98515.47
2023-04-15T04:19:00.371Z,98506.66
2023-04-15T04:29:03.384Z,98513.44
2023-04-15T04:39:06.124Z,98535.16
2023-04-15T04:49:08.853Z,98529.38
2023-04-15T04:59:11.363Z,98535.34
2023-04-15T05:09:13.889Z,98540.44
2023-04-15T05:19:16.538Z,98548.56
2023-04-15T05:29:19.157Z,98554.91
2023-04-15T05:39:22.063Z,98554.22
2023-04-15T05:49:24.658Z,98562.78
2023-04-15T05:59:28.424Z,98584.84
2023-04-15T06:09:30.969Z,98582.22
2023-04-15T06:19:33.781Z,98596.72
2023-04-15T06:29:36.455Z,98605.28
2023-04-15T06:39:39.481Z,98614.34
2023-04-15T06:49:43.224Z,98617.84
2023-04-15T06:59:45.656Z,98624.78
2023-04-15T07:09:48.328Z,98620.72
2023-04-15T07:19:50.979Z,98642.19
2023-04-15T07:29:53.670Z,98654.78
2023-04-15T07:39:56.210Z,98660.78
2023-04-15T07:49:58.818Z,98670.72
2023-04-15T08:00:03.275Z,98674.38
2023-04-15T08:10:15.276Z,98691.44
2023-04-15T08:20:17.883Z,98698.72
2023-04-15T08:30:21.685Z,98699.47
2023-04-15T08:40:32.892Z,98710.84
2023-04-15T08:50:35.716Z,98698.56
2023-04-15T09:00:39.017Z,98723.53
2023-04-15T09:10:41.776Z,98722.28
2023-04-15T09:20:44.750Z,98735.44
2023-04-15T09:30:49.171Z,98731.00
2023-04-15T09:40:53.465Z,98741.72
2023-04-15T09:50:58.903Z,98749.34
2023-04-15T10:01:04.444Z,98751.66
2023-04-15T10:11:07.985Z,98740.22
2023-04-15T10:21:11.281Z,98751.41
2023-04-15T10:31:18.575Z,98748.72
2023-04-15T10:41:23.885Z,98755.41
2023-04-15T10:51:31.628Z,98766.53
2023-04-15T11:01:53.136Z,98755.84
2023-04-15T11:12:09.803Z,98757.41
2023-04-15T11:22:12.734Z,98758.88
2023-04-15T11:32:16.069Z,98749.75
2023-04-15T11:42:18.772Z,98760.13
2023-04-15T11:52:22.091Z,98750.81
2023-04-15T12:02:32.073Z,98754.22
2023-04-15T12:12:34.687Z,98760.25
2023-04-15T12:22:40.038Z,98766.41
2023-04-15T12:32:43.560Z,98754.06
2023-04-15T12:42:46.501Z,98761.75
2023-04-15T12:52:48.980Z,98765.50
2023-04-15T13:02:51.511Z,98780.59
2023-04-15T13:12:54.161Z,98786.81
2023-04-15T13:22:57.000Z,98788.78
2023-04-15T13:32:59.758Z,98791.31
2023-04-15T13:43:03.432Z,98797.81
2023-04-15T13:53:06.163Z,98805.03
2023-04-15T14:03:08.710Z,98815.38
2023-04-15T14:13:11.308Z,98834.69
2023-04-15T14:23:13.876Z,98840.38
2023-04-15T14:33:16.522Z,98844.63
2023-04-15T14:43:18.971Z,98851.81
2023-04-15T14:53:21.449Z,98865.88
2023-04-15T15:03:24.120Z,98861.41
2023-04-15T15:13:26.812Z,98870.25
2023-04-15T15:23:29.295Z,98888.22
2023-04-15T15:33:32.858Z,98907.59
2023-04-15T15:43:35.359Z,98909.88
2023-04-15T15:53:37.837Z,98925.03
2023-04-15T16:03:40.933Z,98948.63
2023-04-15T16:13:43.767Z,98978.84
2023-04-15T16:23:46.621Z,98985.81
2023-04-15T16:33:49.250Z,98972.63
2023-04-15T16:43:51.695Z,98989.16
2023-04-15T16:53:54.268Z,99000.69
2023-04-15T17:03:56.982Z,99034.41
2023-04-15T17:13:59.462Z,99053.03
2023-04-15T17:24:02.120Z,99078.50
2023-04-15T17:34:09.815Z,99091.69
2023-04-15T17:44:14.047Z,99116.75
2023-04-15T17:54:16.780Z,99134.78
2023-04-15T18:04:19.620Z,99152.03
2023-04-15T18:14:33.391Z,99178.78
2023-04-15T18:24:36.994Z,99184.03
2023-04-15T18:34:39.934Z,99200.88
2023-04-15T18:44:42.647Z,99232.03
2023-04-15T18:54:45.530Z,99232.50
2023-04-15T19:04:48.050Z,99239.56
2023-04-15T19:14:50.820Z,99242.41
2023-04-15T19:24:53.407Z,99235.06
2023-04-15T19:34:56.580Z,99251.41
2023-04-15T19:44:59.470Z,99253.59
2023-04-15T19:55:02.052Z,99246.31
2023-04-15T20:05:09.767Z,99256.25
2023-04-15T20:15:12.883Z,99264.97
2023-04-15T20:25:15.827Z,99275.94
2023-04-15T20:35:19.896Z,99282.13
2023-04-15T20:45:22.935Z,99286.59
2023-04-15T20:55:25.609Z,99285.19
2023-04-15T21:05:28.230Z,99305.28
2023-04-15T21:15:31.988Z,99309.00
2023-04-15T21:25:34.445Z,99327.22
2023-04-15T21:35:36.937Z,99331.84
2023-04-15T21:45:39.748Z,99342.31
2023-04-15T21:55:42.315Z,99353.53
2023-04-15T22:05:46.008Z,99352.22
2023-04-15T22:15:48.516Z,99371.31
2023-04-15T22:25:51.225Z,99383.63
2023-04-15T22:35:53.875Z,99399.00
2023-04-15T22:45:56.763Z,99395.66
2023-04-15T22:55:59.430Z,99401.34
2023-04-15T23:06:02.159Z,99409.19
2023-04-15T23:16:05.204Z,99417.19
2023-04-15T23:26:07.686Z,99432.84
2023-04-15T23:36:10.264Z,99434.56
2023-04-15T23:46:12.824Z,99438.16
2023-04-15T23:56:15.838Z,99440.78
